Tell City, IN (47586)

6:50 PM CDT on July 30, 2016 (GMT -0500)
Evanston | | Change Station

Elev 463 ft 38.08 °N, 86.83 °W | Updated 8 seconds ago

Mostly Cloudy
Mostly Cloudy
80.2 °F
Feels Like 86 °F
N
1.1
Wind Variable Wind from SSE
Gusts 2.5 mph

Today
High -- | Low -- °F
--% Chance of Precip.
Yesterday
High -- | Low -- °F
Precip. -- in
Pressure 29.95 in
Visibility 10.0 miles
Clouds Mostly Cloudy 6000 ft
Mostly Cloudy 8500 ft
Heat Index 86 °F
Dew Point 76 °F
Humidity 88%
Rainfall 0.39 in
Snow Depth Not available.
5:48 AM 7:57 PM
Waning Crescent, 10% visible
METAR KHNB 302335Z 33005KT 10SM BKN060 BKN085 28/21 A2995 RMK AO1
Pressure 29.95 in
Visibility 10.0 miles
Clouds Mostly Cloudy 6000 ft
Mostly Cloudy 8500 ft
Heat Index 86 °F
Dew Point 76 °F
Humidity 88%
Rainfall 0.39 in
Snow Depth Not available.
5:48 AM 7:57 PM
Waning Crescent, 10% visible
METAR KHNB 302335Z 33005KT 10SM BKN060 BKN085 28/21 A2995 RMK AO1

10-Day Weather Forecast

Almanac

Astronomy

Jul. 30, 2016 Rise Set
Actual Time
Civil Twilight
Nautical Twilight
Astronomical Twilight
Moon
Length of Visible Light
Length of Day
Tomorrow will be .
, % of the Moon is Illuminated

Today's Extremes

State Highs State Lows

Community

WunderPhotos

Upload Photos

1,928,680 photos uploaded!

WunderBlog® & News

Nearby

Air Quality

  Air Quality AQ Index Pollutant
Not available.

Snow Depth

Station Depth Elevation

Earthquake Activity

City Distance Mag. Time & Date
Minimum magnitude displayed is 2.5.

Coastal Water Temperatures

Place Temperature

Stations

Nearby Weather Stations

Station Location Temp. Windchill Dew Point Humidity Wind Precip. Elev Updated Type
                   

Watches & Warnings

There are currently no watches in effect.